createdAt,value
2022-10-08T00:03:27.993Z,39.4
2022-10-08T00:08:28.148Z,37.3
2022-10-08T00:13:27.972Z,35.7
2022-10-08T00:18:28.083Z,41.1
2022-10-08T00:23:28.168Z,40.8
2022-10-08T00:28:28.013Z,39.9
2022-10-08T00:33:27.860Z,44.4
2022-10-08T00:38:28.025Z,43.7
2022-10-08T00:43:27.894Z,43.5
2022-10-08T00:48:27.986Z,44.6
2022-10-08T00:53:27.969Z,46.7
2022-10-08T00:58:27.919Z,45.9
2022-10-08T01:03:28.174Z,43.5
2022-10-08T01:08:28.117Z,50.9
2022-10-08T01:13:27.822Z,44.9
2022-10-08T01:18:27.957Z,44.0
2022-10-08T01:23:28.012Z,43.4
2022-10-08T01:28:27.910Z,40.6
2022-10-08T01:33:27.804Z,44.9
2022-10-08T01:38:28.140Z,46.6
2022-10-08T01:43:27.876Z,45.3
2022-10-08T01:48:27.888Z,45.0
2022-10-08T01:53:27.948Z,46.4
2022-10-08T01:58:28.273Z,51.9
2022-10-08T02:03:27.785Z,47.3
2022-10-08T02:08:27.763Z,44.3
2022-10-08T02:13:27.702Z,40.6
2022-10-08T02:18:27.726Z,41.3
2022-10-08T02:23:27.994Z,96.4
2022-10-08T02:28:27.828Z,40.6
2022-10-08T02:33:27.684Z,41.7
2022-10-08T02:38:27.914Z,39.7
2022-10-08T02:43:28.138Z,42.0
2022-10-08T02:48:27.757Z,39.9
2022-10-08T02:53:27.697Z,42.2
2022-10-08T02:58:27.641Z,43.2
2022-10-08T03:03:27.692Z,46.0
2022-10-08T03:08:27.849Z,45.4
2022-10-08T03:13:27.767Z,45.2
2022-10-08T03:18:27.754Z,43.3
2022-10-08T03:23:27.975Z,44.8
2022-10-08T03:28:27.624Z,45.9
2022-10-08T03:33:27.595Z,37.2
2022-10-08T03:38:27.789Z,35.6
2022-10-08T03:43:27.639Z,36.5
2022-10-08T03:48:27.577Z,64.1
2022-10-08T03:53:27.963Z,36.4
2022-10-08T03:58:27.832Z,31.3
2022-10-08T04:03:27.625Z,41.4
2022-10-08T04:08:27.544Z,54.8
2022-10-08T04:13:27.597Z,35.8
2022-10-08T04:18:27.570Z,38.4
2022-10-08T04:23:27.740Z,42.9
2022-10-08T04:28:27.615Z,45.6
2022-10-08T04:33:27.512Z,51.8
2022-10-08T04:38:27.690Z,55.6
2022-10-08T04:43:27.678Z,39.0
2022-10-08T04:48:27.451Z,38.7
2022-10-08T04:53:27.525Z,36.3
2022-10-08T04:58:27.597Z,53.7
2022-10-08T05:03:27.599Z,49.2
2022-10-08T05:08:27.409Z,98.1
2022-10-08T05:13:27.507Z,47.7
2022-10-08T05:18:27.617Z,46.9
2022-10-08T05:23:27.678Z,49.3
2022-10-08T05:28:27.461Z,58.1
2022-10-08T05:33:27.427Z,49.7
2022-10-08T05:38:31.395Z,63.1
2022-10-08T05:43:27.405Z,46.3
2022-10-08T05:48:27.380Z,48.8
2022-10-08T05:53:27.556Z,45.1
2022-10-08T05:58:30.363Z,48.7
2022-10-08T06:03:27.544Z,49.9
2022-10-08T06:08:27.594Z,45.3
2022-10-08T06:13:27.439Z,46.8
2022-10-08T06:18:27.438Z,50.2
2022-10-08T06:23:27.320Z,50.2
2022-10-08T06:28:27.382Z,53.5
2022-10-08T06:33:27.589Z,55.7
2022-10-08T06:38:27.402Z,51.9
2022-10-08T06:43:27.451Z,50.1
2022-10-08T06:48:27.688Z,49.0
2022-10-08T06:53:27.373Z,54.1
2022-10-08T06:58:27.454Z,48.0
2022-10-08T07:03:27.673Z,51.8
2022-10-08T07:08:27.247Z,48.6
2022-10-08T07:13:27.243Z,46.6
2022-10-08T07:18:27.368Z,41.4
2022-10-08T07:23:27.259Z,43.7
2022-10-08T07:28:27.370Z,42.9
2022-10-08T07:33:27.516Z,45.5
2022-10-08T07:38:27.321Z,43.0
2022-10-08T07:43:27.451Z,42.4
2022-10-08T07:48:31.553Z,38.5
2022-10-08T07:53:27.340Z,37.4
2022-10-08T07:58:27.234Z,37.1
2022-10-08T08:03:27.152Z,40.9
2022-10-08T08:08:28.212Z,35.1
2022-10-08T08:13:27.085Z,35.6
2022-10-08T08:18:27.189Z,32.0
2022-10-08T08:23:27.198Z,35.8
2022-10-08T08:28:27.283Z,30.1
2022-10-08T08:33:27.344Z,32.9
2022-10-08T08:38:27.108Z,33.4
2022-10-08T08:43:27.101Z,30.3
2022-10-08T08:48:27.391Z,27.3
2022-10-08T08:53:28.748Z,27.2
2022-10-08T08:58:27.096Z,22.2
2022-10-08T09:03:27.052Z,24.2
2022-10-08T09:08:27.050Z,24.2
2022-10-08T09:13:27.113Z,21.3
2022-10-08T09:18:27.221Z,20.3
2022-10-08T09:23:27.052Z,17.9
2022-10-08T09:28:27.139Z,14.4
2022-10-08T09:38:26.991Z,14.6
2022-10-08T09:43:27.145Z,14.1
2022-10-08T09:48:27.328Z,11.9
2022-10-08T09:53:27.090Z,11.0
2022-10-08T09:58:27.257Z,9.2
2022-10-08T10:03:27.232Z,10.4
2022-10-08T10:08:27.131Z,10.4
2022-10-08T10:13:27.098Z,17.0
2022-10-08T10:18:26.925Z,17.6
2022-10-08T10:23:26.965Z,15.7
2022-10-08T10:28:27.416Z,17.3
2022-10-08T10:33:27.106Z,14.9
2022-10-08T10:38:26.920Z,15.1
2022-10-08T10:43:27.234Z,15.6
2022-10-08T10:48:27.144Z,16.5
2022-10-08T10:53:26.935Z,16.2
2022-10-08T10:58:26.927Z,19.3
2022-10-08T11:03:36.330Z,20.1
2022-10-08T11:08:26.910Z,16.6
2022-10-08T11:13:26.904Z,21.5
2022-10-08T11:18:26.850Z,19.3
2022-10-08T11:23:26.863Z,18.7
2022-10-08T11:28:27.296Z,18.7
2022-10-08T11:33:26.855Z,14.5
2022-10-08T11:38:26.874Z,16.9
2022-10-08T11:43:27.221Z,15.3
2022-10-08T11:48:27.510Z,14.4
2022-10-08T11:53:26.798Z,15.3
2022-10-08T11:58:26.797Z,14.3
2022-10-08T12:03:27.399Z,16.1
2022-10-08T12:08:26.818Z,16.6
2022-10-08T12:13:33.168Z,12.1
2022-10-08T12:18:26.919Z,12.5
2022-10-08T12:23:26.893Z,14.1
2022-10-08T12:28:26.925Z,15.1
2022-10-08T12:33:26.876Z,14.6
2022-10-08T12:38:26.820Z,12.2
2022-10-08T12:43:27.125Z,13.1
2022-10-08T12:48:26.904Z,16.5
2022-10-08T12:53:26.894Z,15.1
2022-10-08T12:58:30.901Z,13.3
2022-10-08T13:03:26.877Z,15.4
2022-10-08T13:08:27.033Z,12.6
2022-10-08T13:13:26.632Z,18.5
2022-10-08T13:18:27.205Z,15.1
2022-10-08T13:23:26.784Z,16.0
2022-10-08T13:28:48.472Z,17.7
2022-10-08T13:33:27.021Z,16.5
2022-10-08T13:38:27.146Z,15.4
2022-10-08T13:43:26.641Z,14.9
2022-10-08T13:48:26.833Z,12.6
2022-10-08T13:53:26.797Z,15.5
2022-10-08T13:58:26.888Z,12.5
2022-10-08T14:03:26.817Z,22.2
2022-10-08T14:08:26.603Z,16.1
2022-10-08T14:13:26.635Z,15.7
2022-10-08T14:18:26.655Z,16.5
2022-10-08T14:23:26.687Z,15.0
2022-10-08T14:28:26.849Z,18.5
2022-10-08T14:33:26.723Z,16.9
2022-10-08T14:38:26.604Z,15.9
2022-10-08T14:43:27.850Z,19.4
2022-10-08T14:48:26.813Z,16.2
2022-10-08T14:53:26.570Z,20.7
2022-10-08T14:58:26.567Z,22.5
2022-10-08T15:03:26.608Z,24.0
2022-10-08T15:08:26.748Z,23.0
2022-10-08T15:13:26.481Z,19.1
2022-10-08T15:18:26.589Z,21.6
2022-10-08T15:23:26.772Z,21.4
2022-10-08T15:28:26.783Z,33.1
2022-10-08T15:33:26.516Z,25.5
2022-10-08T15:38:26.603Z,27.5
2022-10-08T15:43:27.671Z,27.3
2022-10-08T15:48:26.592Z,103.6
2022-10-08T15:53:26.564Z,33.7
2022-10-08T15:58:49.015Z,23.8
2022-10-08T16:03:26.603Z,25.0
2022-10-08T16:08:26.451Z,28.4
2022-10-08T16:13:27.222Z,25.2
2022-10-08T16:18:27.505Z,156.3
2022-10-08T16:23:27.658Z,126.1
2022-10-08T16:28:27.489Z,173.5
2022-10-08T16:33:26.419Z,112.9
2022-10-08T16:38:26.431Z,69.7
2022-10-08T16:43:26.582Z,51.3
2022-10-08T16:48:26.458Z,56.1
2022-10-08T16:53:27.489Z,44.4
2022-10-08T16:58:26.608Z,44.1
2022-10-08T17:03:26.674Z,37.4
2022-10-08T17:08:26.562Z,41.2
2022-10-08T17:13:26.425Z,51.9
2022-10-08T17:18:26.609Z,49.9
2022-10-08T17:23:26.694Z,48.7
2022-10-08T17:28:26.446Z,71.8
2022-10-08T17:33:26.367Z,58.3
2022-10-08T17:38:26.539Z,55.0
2022-10-08T17:43:26.531Z,62.0
2022-10-08T17:48:26.445Z,49.6
2022-10-08T17:53:26.241Z,53.6
2022-10-08T17:58:27.912Z,74.9
2022-10-08T18:03:26.358Z,102.7
2022-10-08T18:08:26.287Z,74.2
2022-10-08T18:13:26.462Z,71.6
2022-10-08T18:18:26.394Z,58.6
2022-10-08T18:23:26.489Z,63.3
2022-10-08T18:28:26.760Z,65.4
2022-10-08T18:33:27.108Z,53.4
2022-10-08T18:38:26.482Z,59.1
2022-10-08T18:43:26.735Z,68.7
2022-10-08T18:48:27.086Z,83.5
2022-10-08T18:53:26.961Z,109.1
2022-10-08T18:58:37.418Z,189.1
2022-10-08T19:03:26.359Z,86.9
2022-10-08T19:08:26.336Z,94.6
2022-10-08T19:13:26.264Z,67.6
2022-10-08T19:18:26.173Z,63.2
2022-10-08T19:23:26.706Z,51.6
2022-10-08T19:28:26.762Z,47.6
2022-10-08T19:33:26.271Z,46.1
2022-10-08T19:38:26.223Z,41.3
2022-10-08T19:43:26.199Z,36.3
2022-10-08T19:48:26.155Z,42.1
2022-10-08T19:53:26.354Z,42.2
2022-10-08T19:58:26.119Z,44.6
2022-10-08T20:03:26.093Z,38.6
2022-10-08T20:08:26.250Z,42.8
2022-10-08T20:13:26.269Z,42.8
2022-10-08T20:18:26.292Z,44.4
2022-10-08T20:23:26.571Z,45.5
2022-10-08T20:28:40.063Z,45.4
2022-10-08T20:33:26.251Z,46.9
2022-10-08T20:38:26.099Z,48.3
2022-10-08T20:43:26.407Z,35.4
2022-10-08T20:48:26.348Z,37.0
2022-10-08T20:53:26.027Z,31.3
2022-10-08T20:58:26.211Z,27.2
2022-10-08T21:03:26.907Z,28.2
2022-10-08T21:08:26.696Z,28.2
2022-10-08T21:13:26.120Z,27.2
2022-10-08T21:18:26.440Z,35.2
2022-10-08T21:23:26.594Z,28.0
2022-10-08T21:28:26.025Z,24.1
2022-10-08T21:33:26.239Z,24.2
2022-10-08T21:38:26.063Z,22.2
2022-10-08T21:43:25.977Z,19.2
2022-10-08T21:48:26.001Z,19.3
2022-10-08T21:53:25.852Z,19.9
2022-10-08T21:58:26.132Z,18.3
2022-10-08T22:03:25.932Z,20.6
2022-10-08T22:08:25.862Z,20.9
2022-10-08T22:13:25.880Z,23.7
2022-10-08T22:18:25.840Z,30.0
2022-10-08T22:23:26.101Z,29.1
2022-10-08T22:28:25.965Z,21.3
2022-10-08T22:33:25.794Z,18.6
2022-10-08T22:38:25.986Z,12.5
2022-10-08T22:43:25.844Z,8.9
2022-10-08T22:48:25.848Z,13.5
2022-10-08T22:53:25.991Z,7.9
2022-10-08T22:58:25.840Z,8.7
2022-10-08T23:03:25.998Z,9.8
2022-10-08T23:08:26.143Z,10.9
2022-10-08T23:13:25.744Z,7.9
2022-10-08T23:18:25.998Z,6.7
2022-10-08T23:23:26.287Z,11.4
2022-10-08T23:28:25.904Z,7.3
2022-10-08T23:33:25.776Z,8.4
2022-10-08T23:38:25.721Z,9.1
2022-10-08T23:43:25.728Z,9.3
2022-10-08T23:48:25.742Z,6.3
2022-10-08T23:53:25.977Z,9.8
2022-10-08T23:58:25.910Z,10.9
